sensor_id;sensor_type;location;lat;lon;timestamp;temperature;humidity
80743;SHT31;70142;50.894;6.052;2024-02-15T00:02:29;13.66;83.23
80743;SHT31;70142;50.894;6.052;2024-02-15T00:05:03;13.65;83.33
80743;SHT31;70142;50.894;6.052;2024-02-15T00:07:37;13.67;83.23
80743;SHT31;70142;50.894;6.052;2024-02-15T00:10:10;13.72;82.95
80743;SHT31;70142;50.894;6.052;2024-02-15T00:12:43;13.76;82.88
80743;SHT31;70142;50.894;6.052;2024-02-15T00:15:16;13.76;82.71
80743;SHT31;70142;50.894;6.052;2024-02-15T00:17:52;13.70;82.82
80743;SHT31;70142;50.894;6.052;2024-02-15T00:20:26;13.77;82.67
80743;SHT31;70142;50.894;6.052;2024-02-15T00:22:59;13.79;82.54
80743;SHT31;70142;50.894;6.052;2024-02-15T00:25:33;13.76;82.69
80743;SHT31;70142;50.894;6.052;2024-02-15T00:28:06;13.76;82.79
80743;SHT31;70142;50.894;6.052;2024-02-15T00:30:40;13.67;83.13
80743;SHT31;70142;50.894;6.052;2024-02-15T00:33:16;13.69;83.07
80743;SHT31;70142;50.894;6.052;2024-02-15T00:35:49;13.70;83.18
80743;SHT31;70142;50.894;6.052;2024-02-15T00:38:24;13.72;83.16
80743;SHT31;70142;50.894;6.052;2024-02-15T00:40:57;13.72;83.07
80743;SHT31;70142;50.894;6.052;2024-02-15T00:43:34;13.72;83.01
80743;SHT31;70142;50.894;6.052;2024-02-15T00:46:07;13.69;83.12
80743;SHT31;70142;50.894;6.052;2024-02-15T00:48:42;13.69;83.13
80743;SHT31;70142;50.894;6.052;2024-02-15T00:51:15;13.70;83.02
80743;SHT31;70142;50.894;6.052;2024-02-15T00:53:49;13.62;83.19
80743;SHT31;70142;50.894;6.052;2024-02-15T00:56:22;13.63;83.24
80743;SHT31;70142;50.894;6.052;2024-02-15T00:58:56;13.62;83.17
80743;SHT31;70142;50.894;6.052;2024-02-15T01:01:29;13.63;83.11
80743;SHT31;70142;50.894;6.052;2024-02-15T01:04:04;13.66;83.19
80743;SHT31;70142;50.894;6.052;2024-02-15T01:06:37;13.69;83.10
80743;SHT31;70142;50.894;6.052;2024-02-15T01:09:11;13.70;82.96
80743;SHT31;70142;50.894;6.052;2024-02-15T01:11:45;13.74;82.72
80743;SHT31;70142;50.894;6.052;2024-02-15T01:14:18;13.72;82.76
80743;SHT31;70142;50.894;6.052;2024-02-15T01:16:51;13.72;82.81
80743;SHT31;70142;50.894;6.052;2024-02-15T01:19:27;13.67;82.80
80743;SHT31;70142;50.894;6.052;2024-02-15T01:22:00;13.63;82.93
80743;SHT31;70142;50.894;6.052;2024-02-15T01:24:37;13.72;82.81
80743;SHT31;70142;50.894;6.052;2024-02-15T01:27:10;13.73;82.69
80743;SHT31;70142;50.894;6.052;2024-02-15T01:29:43;13.76;82.58
80743;SHT31;70142;50.894;6.052;2024-02-15T01:32:17;13.79;82.58
80743;SHT31;70142;50.894;6.052;2024-02-15T01:34:51;13.74;82.57
80743;SHT31;70142;50.894;6.052;2024-02-15T01:37:27;13.74;82.52
80743;SHT31;70142;50.894;6.052;2024-02-15T01:40:00;13.77;82.40
80743;SHT31;70142;50.894;6.052;2024-02-15T01:42:33;13.82;82.25
80743;SHT31;70142;50.894;6.052;2024-02-15T01:45:07;13.83;82.03
80743;SHT31;70142;50.894;6.052;2024-02-15T01:47:42;13.84;81.95
80743;SHT31;70142;50.894;6.052;2024-02-15T01:50:18;13.89;81.80
80743;SHT31;70142;50.894;6.052;2024-02-15T01:52:56;13.96;81.48
80743;SHT31;70142;50.894;6.052;2024-02-15T01:55:31;14.02;81.36
80743;SHT31;70142;50.894;6.052;2024-02-15T01:58:06;14.02;81.09
80743;SHT31;70142;50.894;6.052;2024-02-15T02:00:39;13.99;81.07
80743;SHT31;70142;50.894;6.052;2024-02-15T02:03:16;13.94;81.15
80743;SHT31;70142;50.894;6.052;2024-02-15T02:05:51;13.93;81.17
80743;SHT31;70142;50.894;6.052;2024-02-15T02:08:24;13.91;81.25
80743;SHT31;70142;50.894;6.052;2024-02-15T02:10:58;13.83;81.39
80743;SHT31;70142;50.894;6.052;2024-02-15T02:13:31;13.87;81.26
80743;SHT31;70142;50.894;6.052;2024-02-15T02:16:04;13.96;80.99
80743;SHT31;70142;50.894;6.052;2024-02-15T02:18:56;14.00;80.69
80743;SHT31;70142;50.894;6.052;2024-02-15T02:21:32;14.00;80.83
80743;SHT31;70142;50.894;6.052;2024-02-15T02:24:13;14.00;80.66
80743;SHT31;70142;50.894;6.052;2024-02-15T02:26:48;14.00;80.60
80743;SHT31;70142;50.894;6.052;2024-02-15T02:29:24;14.03;80.42
80743;SHT31;70142;50.894;6.052;2024-02-15T02:31:57;14.07;80.28
80743;SHT31;70142;50.894;6.052;2024-02-15T02:34:30;14.09;80.23
80743;SHT31;70142;50.894;6.052;2024-02-15T02:37:04;14.12;80.05
80743;SHT31;70142;50.894;6.052;2024-02-15T02:39:39;14.13;79.97
80743;SHT31;70142;50.894;6.052;2024-02-15T02:42:14;14.17;79.95
80743;SHT31;70142;50.894;6.052;2024-02-15T02:44:47;14.18;79.62
80743;SHT31;70142;50.894;6.052;2024-02-15T02:47:21;14.20;79.41
80743;SHT31;70142;50.894;6.052;2024-02-15T02:49:54;14.21;79.29
80743;SHT31;70142;50.894;6.052;2024-02-15T02:52:27;14.17;79.41
80743;SHT31;70142;50.894;6.052;2024-02-15T02:55:00;14.13;79.38
80743;SHT31;70142;50.894;6.052;2024-02-15T02:57:35;14.09;79.39
80743;SHT31;70142;50.894;6.052;2024-02-15T03:00:10;14.07;79.40
80743;SHT31;70142;50.894;6.052;2024-02-15T03:02:45;14.03;79.46
80743;SHT31;70142;50.894;6.052;2024-02-15T03:05:19;14.03;79.17
80743;SHT31;70142;50.894;6.052;2024-02-15T03:07:53;14.03;79.14
80743;SHT31;70142;50.894;6.052;2024-02-15T03:10:26;14.03;79.08
80743;SHT31;70142;50.894;6.052;2024-02-15T03:13:01;14.03;79.10
80743;SHT31;70142;50.894;6.052;2024-02-15T03:15:36;14.03;79.05
80743;SHT31;70142;50.894;6.052;2024-02-15T03:18:09;14.06;78.92
80743;SHT31;70142;50.894;6.052;2024-02-15T03:20:43;14.07;78.93
80743;SHT31;70142;50.894;6.052;2024-02-15T03:23:16;14.10;78.81
80743;SHT31;70142;50.894;6.052;2024-02-15T03:25:49;14.10;78.74
80743;SHT31;70142;50.894;6.052;2024-02-15T03:28:24;14.07;78.58
80743;SHT31;70142;50.894;6.052;2024-02-15T03:30:58;14.16;78.50
80743;SHT31;70142;50.894;6.052;2024-02-15T03:33:32;14.16;78.42
80743;SHT31;70142;50.894;6.052;2024-02-15T03:36:07;14.10;78.39
80743;SHT31;70142;50.894;6.052;2024-02-15T03:38:42;14.12;78.35
80743;SHT31;70142;50.894;6.052;2024-02-15T03:41:16;14.07;78.31
80743;SHT31;70142;50.894;6.052;2024-02-15T03:43:53;14.06;78.27
80743;SHT31;70142;50.894;6.052;2024-02-15T03:46:27;13.96;78.37
80743;SHT31;70142;50.894;6.052;2024-02-15T03:49:00;13.96;78.43
80743;SHT31;70142;50.894;6.052;2024-02-15T03:51:33;13.93;78.46
80743;SHT31;70142;50.894;6.052;2024-02-15T03:54:06;13.84;78.64
80743;SHT31;70142;50.894;6.052;2024-02-15T03:56:46;13.87;78.59
80743;SHT31;70142;50.894;6.052;2024-02-15T03:59:25;13.91;78.59
80743;SHT31;70142;50.894;6.052;2024-02-15T04:01:59;13.87;78.56
80743;SHT31;70142;50.894;6.052;2024-02-15T04:04:34;13.90;78.49
80743;SHT31;70142;50.894;6.052;2024-02-15T04:07:11;13.83;78.70
80743;SHT31;70142;50.894;6.052;2024-02-15T04:09:44;13.82;78.51
80743;SHT31;70142;50.894;6.052;2024-02-15T04:12:18;13.77;78.55
80743;SHT31;70142;50.894;6.052;2024-02-15T04:14:52;13.83;78.41
80743;SHT31;70142;50.894;6.052;2024-02-15T04:17:26;13.82;78.26
80743;SHT31;70142;50.894;6.052;2024-02-15T04:20:03;13.84;78.19
80743;SHT31;70142;50.894;6.052;2024-02-15T04:22:38;13.86;78.22
80743;SHT31;70142;50.894;6.052;2024-02-15T04:25:14;13.87;78.02
80743;SHT31;70142;50.894;6.052;2024-02-15T04:27:50;13.80;78.15
80743;SHT31;70142;50.894;6.052;2024-02-15T04:30:24;13.89;77.99
80743;SHT31;70142;50.894;6.052;2024-02-15T04:33:00;13.90;77.83
80743;SHT31;70142;50.894;6.052;2024-02-15T04:35:33;13.93;77.77
80743;SHT31;70142;50.894;6.052;2024-02-15T04:38:07;13.91;77.82
80743;SHT31;70142;50.894;6.052;2024-02-15T04:40:40;13.94;77.78
80743;SHT31;70142;50.894;6.052;2024-02-15T04:43:14;14.00;77.58
80743;SHT31;70142;50.894;6.052;2024-02-15T04:45:51;14.03;77.33
80743;SHT31;70142;50.894;6.052;2024-02-15T04:48:27;14.00;77.57
80743;SHT31;70142;50.894;6.052;2024-02-15T04:51:02;14.02;77.45
80743;SHT31;70142;50.894;6.052;2024-02-15T04:53:37;13.99;77.57
80743;SHT31;70142;50.894;6.052;2024-02-15T04:56:12;13.96;77.68
80743;SHT31;70142;50.894;6.052;2024-02-15T04:58:46;13.96;77.96
80743;SHT31;70142;50.894;6.052;2024-02-15T05:01:21;14.02;77.82
80743;SHT31;70142;50.894;6.052;2024-02-15T05:03:55;13.94;78.05
80743;SHT31;70142;50.894;6.052;2024-02-15T05:06:28;13.94;78.26
80743;SHT31;70142;50.894;6.052;2024-02-15T05:09:03;14.02;77.93
80743;SHT31;70142;50.894;6.052;2024-02-15T05:11:42;13.96;78.03
80743;SHT31;70142;50.894;6.052;2024-02-15T05:14:18;13.96;78.16
80743;SHT31;70142;50.894;6.052;2024-02-15T05:16:54;13.90;78.55
80743;SHT31;70142;50.894;6.052;2024-02-15T05:19:29;13.91;78.35
80743;SHT31;70142;50.894;6.052;2024-02-15T05:22:03;13.87;78.42
80743;SHT31;70142;50.894;6.052;2024-02-15T05:24:38;13.91;78.48
80743;SHT31;70142;50.894;6.052;2024-02-15T05:27:11;13.90;78.24
80743;SHT31;70142;50.894;6.052;2024-02-15T05:29:44;13.96;78.11
80743;SHT31;70142;50.894;6.052;2024-02-15T05:32:19;14.02;77.97
80743;SHT31;70142;50.894;6.052;2024-02-15T05:34:56;14.00;77.94
80743;SHT31;70142;50.894;6.052;2024-02-15T05:37:30;13.97;77.79
80743;SHT31;70142;50.894;6.052;2024-02-15T05:40:03;13.97;77.90
80743;SHT31;70142;50.894;6.052;2024-02-15T05:42:36;14.00;77.91
80743;SHT31;70142;50.894;6.052;2024-02-15T05:45:30;14.07;77.61
80743;SHT31;70142;50.894;6.052;2024-02-15T05:48:07;14.03;77.59
80743;SHT31;70142;50.894;6.052;2024-02-15T05:50:41;14.02;77.62
80743;SHT31;70142;50.894;6.052;2024-02-15T05:53:14;14.07;77.51
80743;SHT31;70142;50.894;6.052;2024-02-15T05:55:47;14.09;77.47
80743;SHT31;70142;50.894;6.052;2024-02-15T05:58:21;14.12;77.14
80743;SHT31;70142;50.894;6.052;2024-02-15T06:00:54;14.07;77.36
80743;SHT31;70142;50.894;6.052;2024-02-15T06:03:34;14.12;77.14
80743;SHT31;70142;50.894;6.052;2024-02-15T06:06:09;14.09;77.15
80743;SHT31;70142;50.894;6.052;2024-02-15T06:08:46;14.18;76.86
80743;SHT31;70142;50.894;6.052;2024-02-15T06:11:20;14.10;76.81
80743;SHT31;70142;50.894;6.052;2024-02-15T06:13:54;14.07;76.71
80743;SHT31;70142;50.894;6.052;2024-02-15T06:16:27;14.10;76.77
80743;SHT31;70142;50.894;6.052;2024-02-15T06:19:02;14.10;76.69
80743;SHT31;70142;50.894;6.052;2024-02-15T06:21:35;14.18;76.23
80743;SHT31;70142;50.894;6.052;2024-02-15T06:24:09;14.18;76.22
80743;SHT31;70142;50.894;6.052;2024-02-15T06:26:42;14.30;75.84
80743;SHT31;70142;50.894;6.052;2024-02-15T06:29:19;14.27;75.86
80743;SHT31;70142;50.894;6.052;2024-02-15T06:32:10;14.25;75.98
80743;SHT31;70142;50.894;6.052;2024-02-15T06:35:01;14.25;75.81
80743;SHT31;70142;50.894;6.052;2024-02-15T06:37:52;14.23;75.77
80743;SHT31;70142;50.894;6.052;2024-02-15T06:40:39;14.17;75.67
80743;SHT31;70142;50.894;6.052;2024-02-15T06:43:15;14.20;75.75
80743;SHT31;70142;50.894;6.052;2024-02-15T06:45:51;14.24;75.48
80743;SHT31;70142;50.894;6.052;2024-02-15T06:48:24;14.30;75.55
80743;SHT31;70142;50.894;6.052;2024-02-15T06:50:59;14.23;75.45
80743;SHT31;70142;50.894;6.052;2024-02-15T06:53:33;14.20;75.27
80743;SHT31;70142;50.894;6.052;2024-02-15T06:56:08;14.21;75.32
80743;SHT31;70142;50.894;6.052;2024-02-15T06:58:41;14.20;75.22
80743;SHT31;70142;50.894;6.052;2024-02-15T07:01:15;14.25;75.11
80743;SHT31;70142;50.894;6.052;2024-02-15T07:03:49;14.31;74.84
80743;SHT31;70142;50.894;6.052;2024-02-15T07:06:24;14.28;74.68
80743;SHT31;70142;50.894;6.052;2024-02-15T07:08:59;14.33;75.00
80743;SHT31;70142;50.894;6.052;2024-02-15T07:11:32;14.28;74.66
80743;SHT31;70142;50.894;6.052;2024-02-15T07:14:06;14.30;74.81
80743;SHT31;70142;50.894;6.052;2024-02-15T07:16:44;14.24;74.93
80743;SHT31;70142;50.894;6.052;2024-02-15T07:19:17;14.30;74.38
80743;SHT31;70142;50.894;6.052;2024-02-15T07:21:52;14.35;74.45
80743;SHT31;70142;50.894;6.052;2024-02-15T07:24:27;14.37;74.45
80743;SHT31;70142;50.894;6.052;2024-02-15T07:27:00;14.37;74.37
80743;SHT31;70142;50.894;6.052;2024-02-15T07:29:34;14.37;74.44
80743;SHT31;70142;50.894;6.052;2024-02-15T07:32:09;14.44;74.26
80743;SHT31;70142;50.894;6.052;2024-02-15T07:34:43;14.41;74.40
80743;SHT31;70142;50.894;6.052;2024-02-15T07:37:20;14.41;74.02
80743;SHT31;70142;50.894;6.052;2024-02-15T07:39:57;14.45;73.98
80743;SHT31;70142;50.894;6.052;2024-02-15T07:42:33;14.47;73.85
80743;SHT31;70142;50.894;6.052;2024-02-15T07:45:07;14.52;73.77
80743;SHT31;70142;50.894;6.052;2024-02-15T07:47:43;14.49;73.59
80743;SHT31;70142;50.894;6.052;2024-02-15T07:50:17;14.54;73.40
80743;SHT31;70142;50.894;6.052;2024-02-15T07:52:55;14.60;73.46
80743;SHT31;70142;50.894;6.052;2024-02-15T07:55:28;14.67;73.07
80743;SHT31;70142;50.894;6.052;2024-02-15T07:58:01;14.69;72.99
80743;SHT31;70142;50.894;6.052;2024-02-15T08:00:34;14.71;72.44
80743;SHT31;70142;50.894;6.052;2024-02-15T08:03:10;14.75;72.70
80743;SHT31;70142;50.894;6.052;2024-02-15T08:05:43;14.78;72.50
80743;SHT31;70142;50.894;6.052;2024-02-15T08:08:18;14.87;72.03
80743;SHT31;70142;50.894;6.052;2024-02-15T08:10:51;14.93;71.81
80743;SHT31;70142;50.894;6.052;2024-02-15T08:13:25;14.91;71.75
80743;SHT31;70142;50.894;6.052;2024-02-15T08:16:01;15.00;71.90
80743;SHT31;70142;50.894;6.052;2024-02-15T08:18:37;14.99;71.37
80743;SHT31;70142;50.894;6.052;2024-02-15T08:21:11;15.02;71.14
80743;SHT31;70142;50.894;6.052;2024-02-15T08:23:45;15.08;71.09
80743;SHT31;70142;50.894;6.052;2024-02-15T08:26:19;15.00;71.47
80743;SHT31;70142;50.894;6.052;2024-02-15T08:28:52;15.06;71.48
80743;SHT31;70142;50.894;6.052;2024-02-15T08:31:27;15.03;71.39
80743;SHT31;70142;50.894;6.052;2024-02-15T08:34:02;15.09;71.65
80743;SHT31;70142;50.894;6.052;2024-02-15T08:36:38;15.05;71.42
80743;SHT31;70142;50.894;6.052;2024-02-15T08:39:13;15.12;71.42
80743;SHT31;70142;50.894;6.052;2024-02-15T08:41:50;15.06;71.48
80743;SHT31;70142;50.894;6.052;2024-02-15T08:44:25;15.13;71.45
80743;SHT31;70142;50.894;6.052;2024-02-15T08:46:58;15.20;71.14
80743;SHT31;70142;50.894;6.052;2024-02-15T08:49:31;15.23;71.03
80743;SHT31;70142;50.894;6.052;2024-02-15T08:52:05;15.26;70.94
80743;SHT31;70142;50.894;6.052;2024-02-15T08:54:40;15.35;70.36
80743;SHT31;70142;50.894;6.052;2024-02-15T08:57:14;15.42;70.19
80743;SHT31;70142;50.894;6.052;2024-02-15T08:59:47;15.44;70.22
80743;SHT31;70142;50.894;6.052;2024-02-15T09:02:20;15.49;69.33
80743;SHT31;70142;50.894;6.052;2024-02-15T09:04:53;15.44;69.91
80743;SHT31;70142;50.894;6.052;2024-02-15T09:07:29;15.59;69.88
80743;SHT31;70142;50.894;6.052;2024-02-15T09:10:04;15.66;69.22
80743;SHT31;70142;50.894;6.052;2024-02-15T09:12:43;15.63;68.70
80743;SHT31;70142;50.894;6.052;2024-02-15T09:15:18;15.64;68.56
80743;SHT31;70142;50.894;6.052;2024-02-15T09:17:54;15.80;68.28
80743;SHT31;70142;50.894;6.052;2024-02-15T09:20:29;15.87;68.35
80743;SHT31;70142;50.894;6.052;2024-02-15T09:23:03;16.05;67.75
80743;SHT31;70142;50.894;6.052;2024-02-15T09:25:42;16.15;67.44
80743;SHT31;70142;50.894;6.052;2024-02-15T09:28:16;16.18;67.13
80743;SHT31;70142;50.894;6.052;2024-02-15T09:30:53;16.14;67.28
80743;SHT31;70142;50.894;6.052;2024-02-15T09:33:31;16.24;67.12
80743;SHT31;70142;50.894;6.052;2024-02-15T09:36:05;16.26;66.84
80743;SHT31;70142;50.894;6.052;2024-02-15T09:38:38;16.32;66.83
80743;SHT31;70142;50.894;6.052;2024-02-15T09:41:13;16.24;66.83
80743;SHT31;70142;50.894;6.052;2024-02-15T09:43:46;16.28;67.22
80743;SHT31;70142;50.894;6.052;2024-02-15T09:46:20;16.25;66.53
80743;SHT31;70142;50.894;6.052;2024-02-15T09:48:56;16.25;66.86
80743;SHT31;70142;50.894;6.052;2024-02-15T09:51:33;16.40;66.99
80743;SHT31;70142;50.894;6.052;2024-02-15T09:54:06;16.48;66.28
80743;SHT31;70142;50.894;6.052;2024-02-15T09:56:43;16.51;65.85
80743;SHT31;70142;50.894;6.052;2024-02-15T09:59:17;16.66;66.27
80743;SHT31;70142;50.894;6.052;2024-02-15T10:01:58;16.76;65.96
80743;SHT31;70142;50.894;6.052;2024-02-15T10:04:32;16.73;66.02
80743;SHT31;70142;50.894;6.052;2024-02-15T10:07:06;16.75;65.14
80743;SHT31;70142;50.894;6.052;2024-02-15T10:09:41;16.87;65.85
80743;SHT31;70142;50.894;6.052;2024-02-15T10:12:16;16.75;65.37
80743;SHT31;70142;50.894;6.052;2024-02-15T10:14:52;16.76;65.61
80743;SHT31;70142;50.894;6.052;2024-02-15T10:17:25;16.92;65.30
80743;SHT31;70142;50.894;6.052;2024-02-15T10:20:06;16.97;65.14
80743;SHT31;70142;50.894;6.052;2024-02-15T10:22:41;16.79;65.96
80743;SHT31;70142;50.894;6.052;2024-02-15T10:25:15;16.99;65.26
80743;SHT31;70142;50.894;6.052;2024-02-15T10:27:49;17.02;64.45
80743;SHT31;70142;50.894;6.052;2024-02-15T10:30:22;17.03;64.64
80743;SHT31;70142;50.894;6.052;2024-02-15T10:32:57;17.03;64.24
80743;SHT31;70142;50.894;6.052;2024-02-15T10:35:31;16.97;64.57
80743;SHT31;70142;50.894;6.052;2024-02-15T10:38:08;17.06;64.96
80743;SHT31;70142;50.894;6.052;2024-02-15T10:40:42;17.13;63.74
80743;SHT31;70142;50.894;6.052;2024-02-15T10:43:20;17.17;64.18
80743;SHT31;70142;50.894;6.052;2024-02-15T10:45:55;17.39;63.64
80743;SHT31;70142;50.894;6.052;2024-02-15T10:48:29;17.43;63.24
80743;SHT31;70142;50.894;6.052;2024-02-15T10:51:09;17.55;63.11
80743;SHT31;70142;50.894;6.052;2024-02-15T10:53:47;17.81;63.40
80743;SHT31;70142;50.894;6.052;2024-02-15T10:56:27;17.88;62.76
80743;SHT31;70142;50.894;6.052;2024-02-15T10:59:16;18.00;62.41
80743;SHT31;70142;50.894;6.052;2024-02-15T11:01:53;17.98;62.61
80743;SHT31;70142;50.894;6.052;2024-02-15T11:04:32;18.15;61.65
80743;SHT31;70142;50.894;6.052;2024-02-15T11:07:08;18.19;61.44
80743;SHT31;70142;50.894;6.052;2024-02-15T11:09:43;18.06;61.68
80743;SHT31;70142;50.894;6.052;2024-02-15T11:12:17;18.00;61.75
80743;SHT31;70142;50.894;6.052;2024-02-15T11:14:53;18.01;61.77
80743;SHT31;70142;50.894;6.052;2024-02-15T11:17:46;17.88;62.14
80743;SHT31;70142;50.894;6.052;2024-02-15T11:20:45;18.06;62.59
80743;SHT31;70142;50.894;6.052;2024-02-15T11:23:26;18.13;61.27
80743;SHT31;70142;50.894;6.052;2024-02-15T11:26:43;18.04;61.76
80743;SHT31;70142;50.894;6.052;2024-02-15T11:29:50;18.12;61.95
80743;SHT31;70142;50.894;6.052;2024-02-15T11:32:39;18.33;60.67
80743;SHT31;70142;50.894;6.052;2024-02-15T11:35:17;18.26;60.09
80743;SHT31;70142;50.894;6.052;2024-02-15T11:37:57;18.11;61.16
80743;SHT31;70142;50.894;6.052;2024-02-15T11:41:01;18.18;61.75
80743;SHT31;70142;50.894;6.052;2024-02-15T11:46:30;18.31;60.61
80743;SHT31;70142;50.894;6.052;2024-02-15T11:49:06;18.36;60.80
80743;SHT31;70142;50.894;6.052;2024-02-15T11:51:39;18.31;60.56
80743;SHT31;70142;50.894;6.052;2024-02-15T11:54:20;18.38;60.51
80743;SHT31;70142;50.894;6.052;2024-02-15T11:56:54;18.41;60.67
80743;SHT31;70142;50.894;6.052;2024-02-15T11:59:42;18.11;60.84
80743;SHT31;70142;50.894;6.052;2024-02-15T12:02:26;18.13;61.08
80743;SHT31;70142;50.894;6.052;2024-02-15T12:05:18;18.15;61.12
80743;SHT31;70142;50.894;6.052;2024-02-15T12:08:10;18.08;60.97
80743;SHT31;70142;50.894;6.052;2024-02-15T12:11:01;18.12;60.77
80743;SHT31;70142;50.894;6.052;2024-02-15T12:13:52;18.08;61.27
80743;SHT31;70142;50.894;6.052;2024-02-15T12:16:42;18.13;61.02
80743;SHT31;70142;50.894;6.052;2024-02-15T12:19:38;18.15;60.97
80743;SHT31;70142;50.894;6.052;2024-02-15T12:22:13;18.18;61.00
80743;SHT31;70142;50.894;6.052;2024-02-15T12:24:53;18.26;61.04
80743;SHT31;70142;50.894;6.052;2024-02-15T12:27:27;18.42;59.82
80743;SHT31;70142;50.894;6.052;2024-02-15T12:30:00;18.49;60.37
80743;SHT31;70142;50.894;6.052;2024-02-15T12:32:37;18.38;60.25
80743;SHT31;70142;50.894;6.052;2024-02-15T12:35:12;18.55;60.51
80743;SHT31;70142;50.894;6.052;2024-02-15T12:38:01;18.49;59.87
80743;SHT31;70142;50.894;6.052;2024-02-15T12:40:38;18.41;60.50
80743;SHT31;70142;50.894;6.052;2024-02-15T12:43:17;18.28;60.34
80743;SHT31;70142;50.894;6.052;2024-02-15T12:45:50;18.19;60.88
80743;SHT31;70142;50.894;6.052;2024-02-15T12:48:23;18.22;60.79
80743;SHT31;70142;50.894;6.052;2024-02-15T12:50:59;18.22;61.13
80743;SHT31;70142;50.894;6.052;2024-02-15T12:53:33;18.36;60.76
80743;SHT31;70142;50.894;6.052;2024-02-15T12:56:07;18.45;61.02
80743;SHT31;70142;50.894;6.052;2024-02-15T12:58:41;18.59;60.13
80743;SHT31;70142;50.894;6.052;2024-02-15T13:01:15;18.67;60.01
80743;SHT31;70142;50.894;6.052;2024-02-15T13:03:48;18.31;60.08
80743;SHT31;70142;50.894;6.052;2024-02-15T13:06:23;18.45;60.01
80743;SHT31;70142;50.894;6.052;2024-02-15T13:08:58;18.55;59.84
80743;SHT31;70142;50.894;6.052;2024-02-15T13:11:32;18.57;59.46
80743;SHT31;70142;50.894;6.052;2024-02-15T13:14:05;18.45;59.84
80743;SHT31;70142;50.894;6.052;2024-02-15T13:16:39;18.53;59.92
80743;SHT31;70142;50.894;6.052;2024-02-15T13:19:14;18.74;59.86
80743;SHT31;70142;50.894;6.052;2024-02-15T13:21:48;19.00;58.58
80743;SHT31;70142;50.894;6.052;2024-02-15T13:24:26;18.94;58.32
80743;SHT31;70142;50.894;6.052;2024-02-15T13:26:59;18.87;58.18
80743;SHT31;70142;50.894;6.052;2024-02-15T13:29:32;18.90;57.92
80743;SHT31;70142;50.894;6.052;2024-02-15T13:32:06;18.74;57.64
80743;SHT31;70142;50.894;6.052;2024-02-15T13:34:39;18.72;58.37
80743;SHT31;70142;50.894;6.052;2024-02-15T13:37:12;18.67;58.53
80743;SHT31;70142;50.894;6.052;2024-02-15T13:39:48;18.63;58.18
80743;SHT31;70142;50.894;6.052;2024-02-15T13:42:21;18.65;58.16
80743;SHT31;70142;50.894;6.052;2024-02-15T13:44:54;18.56;58.04
80743;SHT31;70142;50.894;6.052;2024-02-15T13:47:28;18.56;58.56
80743;SHT31;70142;50.894;6.052;2024-02-15T13:50:03;18.57;58.85
80743;SHT31;70142;50.894;6.052;2024-02-15T13:52:36;18.63;58.21
80743;SHT31;70142;50.894;6.052;2024-02-15T13:55:12;18.62;58.33
80743;SHT31;70142;50.894;6.052;2024-02-15T13:57:46;18.63;58.87
80743;SHT31;70142;50.894;6.052;2024-02-15T14:00:20;18.52;59.40
80743;SHT31;70142;50.894;6.052;2024-02-15T14:03:02;18.57;59.12
80743;SHT31;70142;50.894;6.052;2024-02-15T14:05:38;18.66;58.58
80743;SHT31;70142;50.894;6.052;2024-02-15T14:08:13;18.66;58.72
80743;SHT31;70142;50.894;6.052;2024-02-15T14:10:48;18.55;59.25
80743;SHT31;70142;50.894;6.052;2024-02-15T14:13:22;18.52;58.64
80743;SHT31;70142;50.894;6.052;2024-02-15T14:15:55;18.52;59.27
80743;SHT31;70142;50.894;6.052;2024-02-15T14:18:29;18.51;57.96
80743;SHT31;70142;50.894;6.052;2024-02-15T14:21:03;18.56;58.45
80743;SHT31;70142;50.894;6.052;2024-02-15T14:23:36;18.45;58.43
80743;SHT31;70142;50.894;6.052;2024-02-15T14:26:11;18.42;58.14
80743;SHT31;70142;50.894;6.052;2024-02-15T14:28:44;18.46;58.14
80743;SHT31;70142;50.894;6.052;2024-02-15T14:31:18;18.38;57.79
80743;SHT31;70142;50.894;6.052;2024-02-15T14:34:08;18.15;58.62
80743;SHT31;70142;50.894;6.052;2024-02-15T14:36:42;18.15;57.50
80743;SHT31;70142;50.894;6.052;2024-02-15T14:39:15;18.04;57.76
80743;SHT31;70142;50.894;6.052;2024-02-15T14:41:50;18.01;58.18
80743;SHT31;70142;50.894;6.052;2024-02-15T14:44:23;18.08;57.17
80743;SHT31;70142;50.894;6.052;2024-02-15T14:46:57;18.13;58.36
80743;SHT31;70142;50.894;6.052;2024-02-15T14:49:30;18.28;58.06
80743;SHT31;70142;50.894;6.052;2024-02-15T14:52:03;18.32;57.58
80743;SHT31;70142;50.894;6.052;2024-02-15T14:54:37;18.35;58.22
80743;SHT31;70142;50.894;6.052;2024-02-15T14:57:15;18.31;57.40
80743;SHT31;70142;50.894;6.052;2024-02-15T14:59:53;18.33;57.83
80743;SHT31;70142;50.894;6.052;2024-02-15T15:02:26;18.46;57.09
80743;SHT31;70142;50.894;6.052;2024-02-15T15:04:59;18.48;57.34
80743;SHT31;70142;50.894;6.052;2024-02-15T15:07:47;18.55;57.70
80743;SHT31;70142;50.894;6.052;2024-02-15T15:10:38;18.67;56.14
80743;SHT31;70142;50.894;6.052;2024-02-15T15:13:30;18.57;56.85
80743;SHT31;70142;50.894;6.052;2024-02-15T15:16:04;18.49;57.35
80743;SHT31;70142;50.894;6.052;2024-02-15T15:18:38;18.46;57.48
80743;SHT31;70142;50.894;6.052;2024-02-15T15:21:12;18.43;57.51
80743;SHT31;70142;50.894;6.052;2024-02-15T15:23:45;18.41;57.05
80743;SHT31;70142;50.894;6.052;2024-02-15T15:26:20;18.39;57.58
80743;SHT31;70142;50.894;6.052;2024-02-15T15:28:54;18.51;56.59
80743;SHT31;70142;50.894;6.052;2024-02-15T15:31:29;18.59;56.98
80743;SHT31;70142;50.894;6.052;2024-02-15T15:34:03;18.60;56.95
80743;SHT31;70142;50.894;6.052;2024-02-15T15:36:37;18.62;56.94
80743;SHT31;70142;50.894;6.052;2024-02-15T15:39:10;18.52;57.24
80743;SHT31;70142;50.894;6.052;2024-02-15T15:41:44;18.42;57.71
80743;SHT31;70142;50.894;6.052;2024-02-15T15:44:19;18.38;57.46
80743;SHT31;70142;50.894;6.052;2024-02-15T15:46:54;18.32;57.91
80743;SHT31;70142;50.894;6.052;2024-02-15T15:49:28;18.24;57.18
80743;SHT31;70142;50.894;6.052;2024-02-15T15:52:04;18.05;57.23
80743;SHT31;70142;50.894;6.052;2024-02-15T15:54:39;18.00;58.38
80743;SHT31;70142;50.894;6.052;2024-02-15T15:57:13;17.84;58.78
80743;SHT31;70142;50.894;6.052;2024-02-15T15:59:47;17.75;59.17
80743;SHT31;70142;50.894;6.052;2024-02-15T16:02:22;17.61;59.10
80743;SHT31;70142;50.894;6.052;2024-02-15T16:04:56;17.67;59.36
80743;SHT31;70142;50.894;6.052;2024-02-15T16:07:33;17.57;59.40
80743;SHT31;70142;50.894;6.052;2024-02-15T16:10:08;17.51;59.86
80743;SHT31;70142;50.894;6.052;2024-02-15T16:12:42;17.47;60.44
80743;SHT31;70142;50.894;6.052;2024-02-15T16:15:18;17.40;60.62
80743;SHT31;70142;50.894;6.052;2024-02-15T16:17:51;17.29;60.94
80743;SHT31;70142;50.894;6.052;2024-02-15T16:20:24;17.16;61.23
80743;SHT31;70142;50.894;6.052;2024-02-15T16:22:57;17.06;61.78
80743;SHT31;70142;50.894;6.052;2024-02-15T16:25:31;16.96;62.37
80743;SHT31;70142;50.894;6.052;2024-02-15T16:28:04;16.95;62.19